createdAt,value
2022-10-26T00:01:13.633Z,8.85
2022-10-26T00:03:42.594Z,8.82
2022-10-26T00:06:13.637Z,9.38
2022-10-26T00:08:41.331Z,8.85
2022-10-26T00:11:08.927Z,9.68
2022-10-26T00:13:37.357Z,8.93
2022-10-26T00:16:13.853Z,9.57
2022-10-26T00:18:41.265Z,9.15
2022-10-26T00:21:10.495Z,8.88
2022-10-26T00:23:38.049Z,9.18
2022-10-26T00:26:05.436Z,9.23
2022-10-26T00:28:32.355Z,8.68
2022-10-26T00:31:14.879Z,9.05
2022-10-26T00:33:42.029Z,9.05
2022-10-26T00:36:10.204Z,8.68
2022-10-26T00:38:37.935Z,9.90
2022-10-26T00:41:05.514Z,8.90
2022-10-26T00:43:32.188Z,9.43
2022-10-26T00:46:00.101Z,9.40
2022-10-26T00:48:33.581Z,9.10
2022-10-26T00:51:06.525Z,9.15
2022-10-26T00:53:33.639Z,9.18
2022-10-26T00:56:01.461Z,8.85
2022-10-26T00:58:28.761Z,9.40
2022-10-26T01:00:55.933Z,10.10
2022-10-26T01:03:25.396Z,9.82
2022-10-26T01:05:57.063Z,9.63
2022-10-26T01:08:25.457Z,9.70
2022-10-26T01:10:52.693Z,9.02
2022-10-26T01:13:19.821Z,9.68
2022-10-26T01:16:23.937Z,9.30
2022-10-26T01:19:35.972Z,9.50
2022-10-26T01:22:26.596Z,9.50
2022-10-26T01:25:52.125Z,8.85
2022-10-26T01:28:46.297Z,9.13
2022-10-26T01:31:20.478Z,8.32
2022-10-26T01:34:01.629Z,9.73
2022-10-26T01:37:02.838Z,9.25
2022-10-26T01:39:46.781Z,8.70
2022-10-26T01:42:16.727Z,8.27
2022-10-26T01:44:59.663Z,8.88
2022-10-26T01:47:28.035Z,8.60
2022-10-26T01:49:58.625Z,9.00
2022-10-26T01:52:25.508Z,9.20
2022-10-26T01:54:52.325Z,8.43
2022-10-26T01:57:21.636Z,9.32
2022-10-26T02:00:09.961Z,8.65
2022-10-26T02:03:01.007Z,8.48
2022-10-26T02:05:53.553Z,9.20
2022-10-26T02:08:34.339Z,8.73
2022-10-26T02:11:24.378Z,9.25
2022-10-26T02:14:18.782Z,8.93
2022-10-26T02:16:58.218Z,9.35
2022-10-26T02:19:42.982Z,9.77
2022-10-26T02:22:19.727Z,9.18
2022-10-26T02:24:51.612Z,9.48
2022-10-26T02:27:31.885Z,10.27
2022-10-26T02:29:59.453Z,9.50
2022-10-26T02:32:31.660Z,10.27
2022-10-26T02:35:01.353Z,10.77
2022-10-26T02:37:29.131Z,9.18
2022-10-26T02:39:58.293Z,10.00
2022-10-26T02:42:27.018Z,9.52
2022-10-26T02:45:03.518Z,10.40
2022-10-26T02:47:30.625Z,10.55
2022-10-26T02:49:57.971Z,10.48
2022-10-26T02:52:53.513Z,10.15
2022-10-26T02:55:27.978Z,11.05
2022-10-26T02:58:00.325Z,10.35
2022-10-26T03:00:27.320Z,11.45
2022-10-26T03:02:57.672Z,11.35
2022-10-26T03:05:28.083Z,10.30
2022-10-26T03:07:56.143Z,10.35
2022-10-26T03:10:23.292Z,11.15
2022-10-26T03:12:50.499Z,10.95
2022-10-26T03:15:17.625Z,10.85
2022-10-26T03:17:44.503Z,10.63
2022-10-26T03:20:12.079Z,11.50
2022-10-26T03:22:39.080Z,10.55
2022-10-26T03:25:06.612Z,10.45
2022-10-26T03:27:35.086Z,10.65
2022-10-26T03:30:01.977Z,10.55
2022-10-26T03:32:28.837Z,11.10
2022-10-26T03:34:55.701Z,11.35
2022-10-26T03:37:22.547Z,11.25
2022-10-26T03:39:49.390Z,11.32
2022-10-26T03:42:16.276Z,10.88
2022-10-26T03:44:43.206Z,11.60
2022-10-26T03:47:10.033Z,11.55
2022-10-26T03:49:36.864Z,11.05
2022-10-26T03:52:03.908Z,10.77
2022-10-26T03:54:30.748Z,10.73
2022-10-26T03:56:57.577Z,10.73
2022-10-26T03:59:24.409Z,10.73
2022-10-26T04:01:54.034Z,10.20
2022-10-26T04:04:23.790Z,10.68
2022-10-26T04:06:50.654Z,10.90
2022-10-26T04:09:17.586Z,10.57
2022-10-26T04:11:44.425Z,11.15
2022-10-26T04:14:11.270Z,10.27
2022-10-26T04:16:38.139Z,10.68
2022-10-26T04:19:05.120Z,11.30
2022-10-26T04:21:33.164Z,9.75
2022-10-26T04:23:59.991Z,10.77
2022-10-26T04:26:26.862Z,11.38
2022-10-26T04:28:53.764Z,10.55
2022-10-26T04:31:20.625Z,11.50
2022-10-26T04:33:47.542Z,12.57
2022-10-26T04:36:14.396Z,13.32
2022-10-26T04:38:41.268Z,13.75
2022-10-26T04:41:08.074Z,12.85
2022-10-26T04:43:34.933Z,14.85
2022-10-26T04:46:01.745Z,14.13
2022-10-26T04:48:28.860Z,14.82
2022-10-26T04:50:59.860Z,13.68
2022-10-26T04:53:27.316Z,15.30
2022-10-26T04:55:58.695Z,14.13
2022-10-26T04:58:26.077Z,14.90
2022-10-26T05:00:52.968Z,14.65
2022-10-26T05:03:20.050Z,14.90
2022-10-26T05:05:49.647Z,14.95
2022-10-26T05:08:16.713Z,15.43
2022-10-26T05:10:48.332Z,15.63
2022-10-26T05:13:15.204Z,14.60
2022-10-26T05:15:42.083Z,13.77
2022-10-26T05:18:09.359Z,13.32
2022-10-26T05:20:37.020Z,14.85
2022-10-26T05:23:07.385Z,16.10
2022-10-26T05:25:38.571Z,16.13
2022-10-26T05:28:09.534Z,15.52
2022-10-26T05:30:36.550Z,15.75
2022-10-26T05:33:03.610Z,15.45
2022-10-26T05:35:31.950Z,16.13
2022-10-26T05:37:59.386Z,15.48
2022-10-26T05:40:26.654Z,14.70
2022-10-26T05:42:54.391Z,14.52
2022-10-26T05:45:21.302Z,13.98
2022-10-26T05:47:48.438Z,12.98
2022-10-26T05:50:15.567Z,12.23
2022-10-26T05:52:45.247Z,12.85
2022-10-26T05:55:15.160Z,11.93
2022-10-26T05:57:43.176Z,11.57
2022-10-26T06:00:20.210Z,11.02
2022-10-26T06:03:25.338Z,11.13
2022-10-26T06:05:54.426Z,11.30
2022-10-26T06:08:23.901Z,9.82
2022-10-26T06:10:51.667Z,9.55
2022-10-26T06:13:19.013Z,10.88
2022-10-26T06:16:25.004Z,11.10
2022-10-26T06:19:10.780Z,14.13
2022-10-26T06:22:06.978Z,13.23
2022-10-26T06:24:43.613Z,12.05
2022-10-26T06:27:31.424Z,14.48
2022-10-26T06:30:07.158Z,13.00
2022-10-26T06:32:34.346Z,13.10
2022-10-26T06:35:53.054Z,12.98
2022-10-26T06:38:22.393Z,12.63
2022-10-26T06:40:53.219Z,12.55
2022-10-26T06:43:29.652Z,12.73
2022-10-26T06:46:53.131Z,12.02
2022-10-26T06:49:40.723Z,12.27
2022-10-26T06:52:07.423Z,12.65
2022-10-26T06:54:54.709Z,12.30
2022-10-26T06:57:28.890Z,11.57
2022-10-26T07:00:03.097Z,12.07
2022-10-26T07:02:30.162Z,10.80
2022-10-26T07:04:57.044Z,11.07
2022-10-26T07:07:27.189Z,10.75
2022-10-26T07:09:54.067Z,10.55
2022-10-26T07:12:20.936Z,10.15
2022-10-26T07:14:48.116Z,10.60
2022-10-26T07:17:15.060Z,9.50
2022-10-26T07:19:44.717Z,10.40
2022-10-26T07:22:12.179Z,10.25
2022-10-26T07:24:39.507Z,9.95
2022-10-26T07:27:06.331Z,9.60
2022-10-26T07:29:35.225Z,9.68
2022-10-26T07:32:02.368Z,9.57
2022-10-26T07:34:29.230Z,9.88
2022-10-26T07:36:56.054Z,10.07
2022-10-26T07:39:22.896Z,9.82
2022-10-26T07:41:49.752Z,11.35
2022-10-26T07:44:16.694Z,10.25
2022-10-26T07:46:43.554Z,10.98
2022-10-26T07:49:10.657Z,10.75
2022-10-26T07:51:37.679Z,10.82
2022-10-26T07:54:04.691Z,10.18
2022-10-26T07:56:31.717Z,10.93
2022-10-26T07:58:58.691Z,10.80
2022-10-26T08:01:25.786Z,10.15
2022-10-26T08:03:54.148Z,11.80
2022-10-26T08:06:22.846Z,10.05
2022-10-26T08:08:50.147Z,11.15
2022-10-26T08:11:17.683Z,11.80
2022-10-26T08:13:44.900Z,10.80
2022-10-26T08:16:12.053Z,11.00
2022-10-26T08:18:38.884Z,10.80
2022-10-26T08:21:13.745Z,10.18
2022-10-26T08:23:45.122Z,11.82
2022-10-26T08:26:11.980Z,11.52
2022-10-26T08:28:40.210Z,10.23
2022-10-26T08:31:07.667Z,11.63
2022-10-26T08:33:34.507Z,10.82
2022-10-26T08:36:05.581Z,11.05
2022-10-26T08:38:33.986Z,10.65
2022-10-26T08:41:08.964Z,10.68
2022-10-26T08:43:56.216Z,12.68
2022-10-26T08:46:34.315Z,10.70
2022-10-26T08:49:13.691Z,11.50
2022-10-26T08:51:42.437Z,10.68
2022-10-26T08:54:19.306Z,11.70
2022-10-26T08:57:26.740Z,12.32
2022-10-26T08:59:58.369Z,12.57
2022-10-26T09:02:25.360Z,11.95
2022-10-26T09:04:54.134Z,17.63
2022-10-26T09:07:30.240Z,30.60
2022-10-26T09:11:01.024Z,17.27
2022-10-26T09:13:59.010Z,12.73
2022-10-26T09:17:01.830Z,12.32
2022-10-26T09:19:59.219Z,11.40
2022-10-26T09:22:58.452Z,11.43
2022-10-26T09:25:29.949Z,10.15
2022-10-26T09:28:01.574Z,8.77
2022-10-26T09:30:30.365Z,8.68
2022-10-26T09:33:05.755Z,10.57
2022-10-26T09:35:51.298Z,10.02
2022-10-26T09:39:09.003Z,8.73
2022-10-26T09:41:49.754Z,8.40
2022-10-26T09:44:38.536Z,9.80
2022-10-26T09:47:24.652Z,10.98
2022-10-26T09:50:00.807Z,9.70
2022-10-26T09:52:27.756Z,9.82
2022-10-26T09:54:54.576Z,9.23
2022-10-26T09:57:21.695Z,8.70
2022-10-26T09:59:50.656Z,9.55
2022-10-26T10:02:43.781Z,9.65
2022-10-26T10:08:22.324Z,9.88
2022-10-26T10:11:12.529Z,9.82
2022-10-26T10:13:44.940Z,10.20
2022-10-26T10:16:22.427Z,12.10
2022-10-26T10:19:02.163Z,10.63
2022-10-26T10:21:44.237Z,10.55
2022-10-26T10:24:25.582Z,11.65
2022-10-26T10:27:15.597Z,14.02
2022-10-26T10:29:59.696Z,11.45
2022-10-26T10:32:35.461Z,15.20
2022-10-26T10:35:29.838Z,29.02
2022-10-26T10:37:57.140Z,29.02
2022-10-26T10:40:31.227Z,30.08
2022-10-26T10:43:14.328Z,21.67
2022-10-26T10:45:50.411Z,12.18
2022-10-26T10:48:22.258Z,13.18
2022-10-26T10:50:53.987Z,11.80
2022-10-26T10:53:29.640Z,11.60
2022-10-26T10:56:13.740Z,11.18
2022-10-26T10:58:54.644Z,10.38
2022-10-26T11:01:23.509Z,10.07
2022-10-26T11:04:25.414Z,9.73
2022-10-26T11:06:54.196Z,10.35
2022-10-26T11:09:27.874Z,9.88
2022-10-26T11:12:03.159Z,9.20
2022-10-26T11:14:58.237Z,8.80
2022-10-26T11:17:46.065Z,9.98
2022-10-26T11:20:20.171Z,9.43
2022-10-26T11:22:54.249Z,9.90
2022-10-26T11:25:54.256Z,9.45
2022-10-26T11:28:34.531Z,9.15
2022-10-26T11:31:08.099Z,12.63
2022-10-26T11:33:43.297Z,9.57
2022-10-26T11:36:19.733Z,10.52
2022-10-26T11:38:58.237Z,9.70
2022-10-26T11:41:47.633Z,9.20
2022-10-26T11:44:39.640Z,10.55
2022-10-26T11:47:19.917Z,9.13
2022-10-26T11:50:00.980Z,9.40
2022-10-26T11:52:43.473Z,9.85
2022-10-26T11:55:11.563Z,9.70
2022-10-26T11:57:39.006Z,9.43
2022-10-26T12:00:12.912Z,9.65
2022-10-26T12:05:35.120Z,9.88
2022-10-26T12:08:13.726Z,9.85
2022-10-26T12:10:43.656Z,9.98
2022-10-26T12:13:42.824Z,9.90
2022-10-26T12:16:34.915Z,9.63
2022-10-26T12:19:29.719Z,9.40
2022-10-26T12:21:57.056Z,8.82
2022-10-26T12:24:23.875Z,8.38
2022-10-26T12:26:52.904Z,9.18
2022-10-26T12:29:46.347Z,10.18
2022-10-26T12:32:28.358Z,9.20
2022-10-26T12:34:55.052Z,8.98
2022-10-26T12:37:37.197Z,9.25
2022-10-26T12:40:43.087Z,8.27
2022-10-26T12:43:15.974Z,8.68
2022-10-26T12:45:45.637Z,10.18
2022-10-26T12:48:42.518Z,8.82
2022-10-26T12:51:21.665Z,9.20
2022-10-26T12:54:35.330Z,8.93
2022-10-26T12:57:31.363Z,8.65
2022-10-26T13:00:05.840Z,9.10
2022-10-26T13:03:08.441Z,8.40
2022-10-26T13:06:10.748Z,8.13
2022-10-26T13:08:43.966Z,8.63
2022-10-26T13:11:41.638Z,7.50
2022-10-26T13:14:37.159Z,7.55
2022-10-26T13:17:06.320Z,9.82
2022-10-26T13:19:47.349Z,8.18
2022-10-26T13:22:21.864Z,8.93
2022-10-26T13:25:03.111Z,10.05
2022-10-26T13:28:05.037Z,10.50
2022-10-26T13:30:46.123Z,10.35
2022-10-26T13:33:22.554Z,11.52
2022-10-26T13:35:54.594Z,9.82
2022-10-26T13:38:27.349Z,10.32
2022-10-26T13:41:06.685Z,10.13
2022-10-26T13:43:36.220Z,10.25
2022-10-26T13:46:04.435Z,9.75
2022-10-26T13:48:42.016Z,10.73
2022-10-26T13:51:21.720Z,9.88
2022-10-26T13:54:00.380Z,9.60
2022-10-26T13:56:35.193Z,9.52
2022-10-26T13:59:06.234Z,9.00
2022-10-26T14:01:33.284Z,9.20
2022-10-26T14:04:00.356Z,8.82
2022-10-26T14:06:38.749Z,8.40
2022-10-26T14:09:12.597Z,9.52
2022-10-26T14:11:55.484Z,8.20
2022-10-26T14:14:29.223Z,8.88
2022-10-26T14:16:57.180Z,9.30
2022-10-26T14:19:34.941Z,8.65
2022-10-26T14:22:02.975Z,8.75
2022-10-26T14:24:47.353Z,8.85
2022-10-26T14:27:21.969Z,8.55
2022-10-26T14:30:16.703Z,8.90
2022-10-26T14:32:37.829Z,8.45
2022-10-26T14:35:05.099Z,8.40
2022-10-26T14:37:46.156Z,8.13
2022-10-26T14:40:23.217Z,8.38
2022-10-26T14:42:55.009Z,8.90
2022-10-26T14:45:48.162Z,8.93
2022-10-26T14:48:35.159Z,8.85
2022-10-26T14:51:07.966Z,9.35
2022-10-26T14:53:40.746Z,9.60
2022-10-26T14:56:40.043Z,10.13
2022-10-26T14:59:41.190Z,8.50
2022-10-26T15:02:11.106Z,9.93
2022-10-26T15:04:57.317Z,9.88
2022-10-26T15:07:24.901Z,9.15
2022-10-26T15:09:53.428Z,9.65
2022-10-26T15:12:34.302Z,8.55
2022-10-26T15:15:14.565Z,9.77
2022-10-26T15:17:48.609Z,9.75
2022-10-26T15:20:29.147Z,8.50
2022-10-26T15:23:01.998Z,10.00
2022-10-26T15:25:33.230Z,9.25
2022-10-26T15:28:43.298Z,10.52
2022-10-26T15:31:14.554Z,10.05
2022-10-26T15:34:03.982Z,10.07
2022-10-26T15:36:32.083Z,10.32
2022-10-26T15:38:59.644Z,10.77
2022-10-26T15:41:38.856Z,10.98
2022-10-26T15:44:21.700Z,12.82
2022-10-26T15:46:50.074Z,10.73
2022-10-26T15:49:20.531Z,10.63
2022-10-26T15:51:48.856Z,10.18
2022-10-26T15:54:15.694Z,9.98
2022-10-26T15:56:46.317Z,9.98
2022-10-26T15:59:20.509Z,9.80
2022-10-26T16:01:47.491Z,10.05
2022-10-26T16:04:14.613Z,10.05
2022-10-26T16:06:42.485Z,10.98
2022-10-26T16:09:18.137Z,10.95
2022-10-26T16:11:45.481Z,10.32
2022-10-26T16:14:12.926Z,10.18
2022-10-26T16:16:40.058Z,10.57
2022-10-26T16:21:55.587Z,10.90
2022-10-26T16:24:22.647Z,10.23
2022-10-26T16:26:49.509Z,11.35
2022-10-26T16:29:16.426Z,10.93
2022-10-26T16:31:43.361Z,11.40
2022-10-26T16:34:10.213Z,11.50
2022-10-26T16:36:38.574Z,14.57
2022-10-26T16:39:06.552Z,19.33
2022-10-26T16:41:34.655Z,17.73
2022-10-26T16:44:01.520Z,17.08
2022-10-26T16:46:28.356Z,17.55
2022-10-26T16:48:55.222Z,17.63
2022-10-26T16:51:26.532Z,17.00
2022-10-26T16:53:55.847Z,16.48
2022-10-26T16:56:31.732Z,16.55
2022-10-26T16:59:18.571Z,16.45
2022-10-26T17:01:45.470Z,15.98
2022-10-26T17:04:12.370Z,16.00
2022-10-26T17:06:39.209Z,14.85
2022-10-26T17:09:06.026Z,15.57
2022-10-26T17:11:32.855Z,16.33
2022-10-26T17:13:59.737Z,16.52
2022-10-26T17:16:26.667Z,16.30
2022-10-26T17:18:54.055Z,16.13
2022-10-26T17:21:34.280Z,14.45
2022-10-26T17:24:02.239Z,15.15
2022-10-26T17:26:29.668Z,16.05
2022-10-26T17:28:57.617Z,15.80
2022-10-26T17:31:25.834Z,18.25
2022-10-26T17:33:52.790Z,18.75
2022-10-26T17:36:22.420Z,26.65
2022-10-26T17:38:51.888Z,26.52
2022-10-26T17:41:20.835Z,25.38
2022-10-26T17:43:49.333Z,25.43
2022-10-26T17:46:19.806Z,26.02
2022-10-26T17:48:46.871Z,28.40
2022-10-26T17:51:17.336Z,30.80
2022-10-26T17:53:48.310Z,27.00
2022-10-26T17:56:20.557Z,36.23
2022-10-26T17:59:02.214Z,43.35
2022-10-26T18:01:30.273Z,44.63
2022-10-26T18:03:57.146Z,39.47
2022-10-26T18:06:24.479Z,39.43
2022-10-26T18:08:51.480Z,36.10
2022-10-26T18:11:26.426Z,35.17
2022-10-26T18:13:57.525Z,34.77
2022-10-26T18:16:26.701Z,35.17
2022-10-26T18:19:02.824Z,36.42
2022-10-26T18:21:33.437Z,36.35
2022-10-26T18:24:00.349Z,36.37
2022-10-26T18:26:29.231Z,34.20
2022-10-26T18:29:00.919Z,32.57
2022-10-26T18:31:29.664Z,32.80
2022-10-26T18:34:01.522Z,29.57
2022-10-26T18:36:29.911Z,29.52
2022-10-26T18:38:57.008Z,28.93
2022-10-26T18:41:25.375Z,28.77
2022-10-26T18:43:55.079Z,29.23
2022-10-26T18:46:25.291Z,27.97
2022-10-26T18:48:53.018Z,27.37
2022-10-26T18:51:23.818Z,27.35
2022-10-26T18:53:50.774Z,26.23
2022-10-26T18:56:20.791Z,24.13
2022-10-26T18:58:54.024Z,23.70
2022-10-26T19:01:31.910Z,23.47
2022-10-26T19:04:01.828Z,23.57
2022-10-26T19:06:32.120Z,24.33
2022-10-26T19:08:59.336Z,25.80
2022-10-26T19:11:29.188Z,26.87
2022-10-26T19:13:56.588Z,27.67
2022-10-26T19:16:44.488Z,28.93
2022-10-26T19:19:13.880Z,28.63
2022-10-26T19:21:40.775Z,28.13
2022-10-26T19:24:22.784Z,27.00
2022-10-26T19:26:51.345Z,28.10
2022-10-26T19:29:19.596Z,28.07
2022-10-26T19:31:48.441Z,26.40
2022-10-26T19:34:16.530Z,28.73
2022-10-26T19:36:46.151Z,29.63
2022-10-26T19:39:15.500Z,30.23
2022-10-26T19:41:42.961Z,31.13
2022-10-26T19:44:11.807Z,32.47
2022-10-26T19:46:39.524Z,29.77
2022-10-26T19:49:06.756Z,28.87
2022-10-26T19:51:33.670Z,27.77
2022-10-26T19:54:03.841Z,29.40
2022-10-26T19:56:32.680Z,34.07
2022-10-26T19:58:59.834Z,34.93
2022-10-26T20:01:27.082Z,33.53
2022-10-26T20:03:54.553Z,33.10
2022-10-26T20:06:21.368Z,31.67
2022-10-26T20:08:49.760Z,30.03
2022-10-26T20:11:18.196Z,29.50
2022-10-26T20:13:46.980Z,30.37
2022-10-26T20:16:16.210Z,28.33
2022-10-26T20:18:47.529Z,26.10
2022-10-26T20:21:17.398Z,25.37
2022-10-26T20:23:45.046Z,27.03
2022-10-26T20:26:18.249Z,29.90
2022-10-26T20:28:49.111Z,28.75
2022-10-26T20:31:15.972Z,29.40
2022-10-26T20:33:43.285Z,28.50
2022-10-26T20:36:10.176Z,27.27
2022-10-26T20:38:39.096Z,26.20
2022-10-26T20:41:09.320Z,26.77
2022-10-26T20:43:39.963Z,26.30
2022-10-26T20:46:27.710Z,27.33
2022-10-26T20:48:55.245Z,30.33
2022-10-26T20:52:20.026Z,28.23
2022-10-26T20:55:36.489Z,26.67
2022-10-26T20:58:10.416Z,24.67
2022-10-26T21:00:50.203Z,23.37
2022-10-26T21:03:17.107Z,23.40
2022-10-26T21:05:46.904Z,23.83
2022-10-26T21:08:14.210Z,22.97
2022-10-26T21:10:41.079Z,24.03
2022-10-26T21:13:07.903Z,23.50
2022-10-26T21:15:36.075Z,23.63
2022-10-26T21:18:03.334Z,22.60
2022-10-26T21:20:31.186Z,22.70
2022-10-26T21:22:58.039Z,21.63
2022-10-26T21:25:24.908Z,21.70
2022-10-26T21:27:56.833Z,20.47
2022-10-26T21:30:24.700Z,20.80
2022-10-26T21:32:52.880Z,21.17
2022-10-26T21:35:20.920Z,21.30
2022-10-26T21:37:48.036Z,21.57
2022-10-26T21:40:15.469Z,22.17
2022-10-26T21:42:42.318Z,25.20
2022-10-26T21:45:09.443Z,24.77
2022-10-26T21:47:36.316Z,26.10
2022-10-26T21:50:03.197Z,25.10
2022-10-26T21:52:30.028Z,25.87
2022-10-26T21:54:57.126Z,25.00
2022-10-26T21:57:24.443Z,24.67
2022-10-26T21:59:51.341Z,24.50
2022-10-26T22:02:18.247Z,23.73
2022-10-26T22:04:45.150Z,23.30
2022-10-26T22:07:12.017Z,23.33
2022-10-26T22:09:49.384Z,23.60
2022-10-26T22:12:25.651Z,23.33
2022-10-26T22:14:52.515Z,22.97
2022-10-26T22:17:19.345Z,23.30
2022-10-26T22:19:46.184Z,22.70
2022-10-26T22:22:13.018Z,22.17
2022-10-26T22:24:39.849Z,21.83
2022-10-26T22:27:06.732Z,21.83
2022-10-26T22:29:33.552Z,22.00
2022-10-26T22:32:00.389Z,21.83
2022-10-26T22:34:27.228Z,21.47
2022-10-26T22:36:54.035Z,20.60
2022-10-26T22:39:20.858Z,21.43
2022-10-26T22:41:49.308Z,21.73
2022-10-26T22:44:16.159Z,21.67
2022-10-26T22:46:42.977Z,22.70
2022-10-26T22:49:11.817Z,21.47
2022-10-26T22:51:38.798Z,20.27
2022-10-26T22:54:05.948Z,21.13
2022-10-26T22:56:35.218Z,20.97
2022-10-26T22:59:02.175Z,19.13
2022-10-26T23:01:32.723Z,20.00
2022-10-26T23:04:00.448Z,19.87
2022-10-26T23:06:30.416Z,18.77
2022-10-26T23:08:57.876Z,17.97
2022-10-26T23:11:27.133Z,18.33
2022-10-26T23:13:55.914Z,18.77
2022-10-26T23:16:23.858Z,18.30
2022-10-26T23:18:53.169Z,17.80
2022-10-26T23:21:22.942Z,17.87
2022-10-26T23:23:49.823Z,17.90
2022-10-26T23:26:21.018Z,17.23
2022-10-26T23:28:48.163Z,16.87
2022-10-26T23:31:21.518Z,16.87
2022-10-26T23:33:51.330Z,16.93
2022-10-26T23:36:18.751Z,16.23
2022-10-26T23:38:45.977Z,15.60
2022-10-26T23:41:13.346Z,15.47
2022-10-26T23:43:40.807Z,15.83
2022-10-26T23:46:07.940Z,15.93
2022-10-26T23:48:34.749Z,16.00
2022-10-26T23:51:01.707Z,15.03
2022-10-26T23:53:28.630Z,15.93
2022-10-26T23:55:55.455Z,15.93
2022-10-26T23:58:22.313Z,17.07
